Skip Navigation Links
NOAA logo - Click to go to the NOAA homepage
NOAA's National Weather Service
Alaska Aviation Weather Unit
  NWS logo - Click to go to the NWS homepage
Left Navbar Graphic     21 AKDT = 05 GMT

   
NOAA is celebrating 200 years of science, service, and stewardship. Visit the NOAA 200th celebration Web site to learn more.
USA.gov is the U.S. Government's official Web portal to all Federal, state and local government Web resources and services.
Facebook
NWS on Facebook

AAWU Home :: Display TAF Add Bookmark
TAF PAPG 262340Z 2700/2724 07006KT P6SM -SHRA OVC045
     FM270300 10007KT P6SM -RA OVC040
     FM270500 12008KT 5SM -RA BR OVC025
     FM271100 19008KT P6SM VCSH SCT025 BKN040
     FM272000 12008KT P6SM -RA OVC035
      AMD LTD TO CLD VIS AND WIND 2706/2715=
METAR PAPG 262356Z 07004KT 10SM -RA FEW030 OVC045 08/06 A2954 RMK AO2
     SLP009 P0002 60007 T00830061 10133 20083 51020 $=

METAR PAPG 270056Z 00000KT 10SM FEW027 BKN039 09/06 A2954 RMK AO2 RAE35
     SLP009 P0000 T00940061 $=

METAR PAPG 270156Z 05003KT 10SM -RA BKN055 09/06 RMK AO2 RAB47 SLPNO
    P0000 T00940056 $=

METAR PAPG 270256Z VRB03KT 10SM -RA SCT041 SCT048 10/05 RMK AO2 RAE02B47
     SLPNO P0001 60001 T01000050 $=

METAR PAPG 270356Z 00000KT 10SM -RA BKN029 OVC042 09/06 A2956 RMK AO2
     SLP015 P0000 T00890056 $=

SPECI PAPG 270408Z 25003KT 10SM -RA BKN031 OVC040 09/06 RMK AO2
    P0000 $=

METAR PAPG 270456Z 00000KT 10SM -RA FEW029 OVC047 08/06 A2956 RMK
 AO2 SLP015 P0003 T00780061 $=


NOAA's National Weather Service
Alaska Aviation Weather Unit
6930 Sand Lake Road
Anchorage, AK 99502-1845
Disclaimer
Credits
Glossary
Privacy Policy
About Us
Career Opportunities
Contact AAWU Internet Services Site last modified: April, 17th 2012